INFORMACIÓN METAR y TAF
METAR FOR LELN
ADDS - METARS form results

(1816 UTC 26 February 2020)
Data provider http://aviationweather.gov/metar/data/
 
METAR text: LELN 261800Z 26013KT 9999 SCT045 06/02 Q1021
Conditions at: LELN (LEON/VIRGEN CAMI, ES) observed 1800 UTC 26 February 2020
Temperature: 6.0°C (43°F)
Dewpoint: 2.0°C (36°F) [RH = 75%]
Pressure (altimeter): 30.15 inches Hg (1021.0 mb)
Winds: from the W (260 degrees) at 15 MPH (13 knots; 6.7 m/s)
Visibility: 6 or more miles (10+ km)
Ceiling: at least 12,000 feet AGL
Clouds: scattered clouds at 4500 feet AGL
Weather: no significant weather observed at this time

METAR text: LELN 261730Z 27014KT 9999 BKN050 07/02 Q1021
Conditions at: LELN (LEON/VIRGEN CAMI, ES) observed 1730 UTC 26 February 2020
Temperature: 7.0°C (45°F)
Dewpoint: 2.0°C (36°F) [RH = 70%]
Pressure (altimeter): 30.15 inches Hg (1021.0 mb)
Winds: from the W (270 degrees) at 16 MPH (14 knots; 7.2 m/s)
Visibility: 6 or more miles (10+ km)
Ceiling: 5000 feet AGL
Clouds: broken clouds at 5000 feet AGL
Weather: no significant weather observed at this time

Forecast for: LELN (LEON/VIRGEN CAMI, ES)
Text: TAF LELN 261700Z 2618/2703 26010KT 9999 SCT050
Forecast period: 1800 UTC 26 February 2020 to 0300 UTC 27 February 2020
Forecast type: FROM: standard forecast or significant change
Winds: from the W (260 degrees) at 12 MPH (10 knots; 5.1 m/s)
Visibility: 6 or more miles 10+ km)
Ceiling: at least 12,000 feet AGL
Clouds: scattered clouds at 5000 feet AGL
Weather: no significant weather forecast for this period
Text: PROB30
Forecast period: 0100 to 0300 UTC 27 February 2020
Forecast type: TEMPORARY: The following changes expected for less than half the time period
Visibility: missing
Ceiling: 600 feet AGL
Clouds: broken clouds at 600 feet AGL
Weather: no significant weather forecast for this period

 MAPA DE AEROPUERTO

 INFORMACIÓN DE PISTA
Pista 05 Longitud 6890 ft Ancho 148 ft
Elevación 2994 ft Umbral desplazado 0 ft Rumbo de pista 45
Pista 23 Longitud 6890 ft Ancho 148 ft
Elevación 3001 ft Umbral desplazado 0 ft Rumbo de pista 225
Pista 06 Longitud 3609 ft Ancho 328 ft
Elevación 3034 ft Umbral desplazado 0 ft Rumbo de pista 60
Pista 24 Longitud 3609 ft Ancho 328 ft
Elevación 3000 ft Umbral desplazado 0 ft Rumbo de pista 240

 FRECUANCIAS DEL AEROPUERTO
Tipo APP Nombre APP Frecuencia 122.1 MHZ
Tipo TWR Nombre TWR Frecuencia 122.1 MHZ

 RADIO AYUDAS DEL AEROPUERTO
Tipo VOR-DME Nombre Leon Frecuencia 112000 KHZ
Tipo NDB Nombre Leon Frecuencia 330 KHZ